Randolph, Ohio
Current Conditions -  °F | °C
As of 4:54 AM on Saturday 22 Nov 2014 (Local Time) from KAKR Reporting Station
Few Clouds Few Clouds  
Wind Chill: 14°   Ceiling: Unl
Heat Index: 26°   Visibility: 10mi
Dew Point:   Wind: 15mph
Humidity: 49%   Direction: 180°S
Pressure: 30.28"   Gusts: NA
Location:  41.03°N, 81.25°W
Report Text: KAKR 220954Z AUTO 18013KT 10SM FEW055 M03/M13 A3028 RMK AO2 SLP268 T10331128
Loading
Personal Weather Stations






























Interactive Weather Map New forecast layout! Learn more

10-Day Weather Forecast

Advertisements
Track Severe Weather on mobile